This is the latest recevied weather packets stored in our database for station/object KC3SOZ. If no packets are shown the sender has not sent any weather packets the latest 10 day(s).
| Time | Temp. | Humidity | Pressure | Rain* | Wind** | Luminosity | Snow |
|---|---|---|---|---|---|---|---|
| 1778014838 | 25.56° C | 46% | 1007.6 hPa | 0 mm | - | 121 W/m² | - |
| 1778014535 | 25.56° C | 43% | 1007.6 hPa | 0 mm | - | 112 W/m² | - |
| 1778014232 | 25.56° C | 43% | 1007.5 hPa | 0 mm | - | 105 W/m² | - |
| 1778013930 | 25.56° C | 45% | 1007.7 hPa | 0 mm | - | 135 W/m² | - |
| 1778013627 | 25.56° C | 44% | 1007.6 hPa | 0 mm | - | 170 W/m² | - |
| 1778013323 | 26.11° C | 43% | 1007.6 hPa | 0 mm | - | 456 W/m² | - |
| 1778013021 | 25.56° C | 43% | 1007.8 hPa | 0 mm | - | 485 W/m² | - |
| 1778012717 | 25.56° C | 46% | 1007.6 hPa | 0 mm | - | 240 W/m² | - |
| 1778012413 | 25.56° C | 43% | 1007.7 hPa | 0 mm | - | 232 W/m² | - |
| 1778012110 | 26.11° C | 43% | 1007.7 hPa | 0 mm | - | 236 W/m² | - |
| 1778011807 | 25.56° C | 44% | 1007.8 hPa | 0 mm | - | 227 W/m² | - |
| 1778011505 | 25.56° C | 45% | 1007.7 hPa | 0 mm | - | 224 W/m² | - |
| 1778011201 | 26.11° C | 42% | 1007.8 hPa | 0 mm | - | 551 W/m² | - |
| 1778010898 | 25.56° C | 43% | 1007.8 hPa | 0 mm | - | 211 W/m² | - |
| 1778010595 | 25.56° C | 43% | 1008.1 hPa | 0 mm | - | 257 W/m² | - |
| 1778010293 | 25.56° C | 43% | 1008 hPa | 0 mm | - | 255 W/m² | - |
| 1778009993 | 26.11° C | 42% | 1007.9 hPa | 0 mm | - | 215 W/m² | - |
| 1778009690 | 26.11° C | 42% | 1007.8 hPa | 0 mm | - | 391 W/m² | - |
| 1778009387 | 26.67° C | 42% | 1008 hPa | 0 mm | - | 365 W/m² | - |
| 1778009086 | 26.67° C | 42% | 1007.8 hPa | 0 mm | - | 695 W/m² | - |
| 1778008783 | 26.67° C | 41% | 1007.7 hPa | 0 mm | - | 702 W/m² | - |
| 1778008482 | 26.11° C | 43% | 1008 hPa | 0 mm | - | 674 W/m² | - |
| 1778008178 | 25.56° C | 45% | 1007.8 hPa | 0 mm | - | 740 W/m² | - |
| 1778007873 | 26.67° C | 44% | 1008.1 hPa | 0 mm | - | 702 W/m² | - |
| 1778007569 | 26.11° C | 46% | 1008.4 hPa | 0 mm | - | 795 W/m² | - |
* Rain latest hour (hover to see other rain measurements)
** Current wind speed in m/s (hover to see current wind gust speed)